sensor_id;sensor_type;location;lat;lon;timestamp;P1;durP1;ratioP1;P2;durP2;ratioP2
20559;SDS011;10438;51.454;6.718;2022-10-16T00:01:31;11.93;;;3.53;;
20559;SDS011;10438;51.454;6.718;2022-10-16T00:03:57;5.50;;;2.87;;
20559;SDS011;10438;51.454;6.718;2022-10-16T00:06:24;11.27;;;3.07;;
20559;SDS011;10438;51.454;6.718;2022-10-16T00:08:50;10.07;;;3.60;;
20559;SDS011;10438;51.454;6.718;2022-10-16T00:11:27;11.57;;;3.40;;
20559;SDS011;10438;51.454;6.718;2022-10-16T00:13:56;6.73;;;3.60;;
20559;SDS011;10438;51.454;6.718;2022-10-16T00:16:23;9.50;;;3.27;;
20559;SDS011;10438;51.454;6.718;2022-10-16T00:18:49;10.20;;;3.83;;
20559;SDS011;10438;51.454;6.718;2022-10-16T00:21:16;8.90;;;4.07;;
20559;SDS011;10438;51.454;6.718;2022-10-16T00:23:44;8.77;;;3.70;;
20559;SDS011;10438;51.454;6.718;2022-10-16T00:26:11;11.20;;;4.30;;
20559;SDS011;10438;51.454;6.718;2022-10-16T00:28:39;8.93;;;3.60;;
20559;SDS011;10438;51.454;6.718;2022-10-16T00:31:06;8.73;;;4.27;;
20559;SDS011;10438;51.454;6.718;2022-10-16T00:33:34;9.37;;;3.40;;
20559;SDS011;10438;51.454;6.718;2022-10-16T00:36:01;7.20;;;3.13;;
20559;SDS011;10438;51.454;6.718;2022-10-16T00:38:28;7.23;;;3.10;;
20559;SDS011;10438;51.454;6.718;2022-10-16T00:40:54;8.73;;;3.50;;
20559;SDS011;10438;51.454;6.718;2022-10-16T00:43:39;9.90;;;3.37;;
20559;SDS011;10438;51.454;6.718;2022-10-16T00:49:01;8.73;;;3.37;;
20559;SDS011;10438;51.454;6.718;2022-10-16T00:51:33;9.50;;;3.67;;
20559;SDS011;10438;51.454;6.718;2022-10-16T00:54:02;8.80;;;3.47;;
20559;SDS011;10438;51.454;6.718;2022-10-16T00:56:29;13.17;;;3.33;;
20559;SDS011;10438;51.454;6.718;2022-10-16T00:58:55;14.23;;;3.30;;
20559;SDS011;10438;51.454;6.718;2022-10-16T01:01:20;6.33;;;3.23;;
20559;SDS011;10438;51.454;6.718;2022-10-16T01:03:46;9.17;;;3.23;;
20559;SDS011;10438;51.454;6.718;2022-10-16T01:11:37;7.33;;;3.33;;
20559;SDS011;10438;51.454;6.718;2022-10-16T01:14:11;11.83;;;3.60;;
20559;SDS011;10438;51.454;6.718;2022-10-16T01:16:53;6.67;;;2.80;;
20559;SDS011;10438;51.454;6.718;2022-10-16T01:25:32;10.47;;;3.23;;
20559;SDS011;10438;51.454;6.718;2022-10-16T01:28:04;9.70;;;3.20;;
20559;SDS011;10438;51.454;6.718;2022-10-16T01:30:33;6.00;;;2.90;;
20559;SDS011;10438;51.454;6.718;2022-10-16T01:33:02;8.57;;;2.90;;
20559;SDS011;10438;51.454;6.718;2022-10-16T01:35:41;7.30;;;3.00;;
20559;SDS011;10438;51.454;6.718;2022-10-16T01:38:19;5.00;;;2.90;;
20559;SDS011;10438;51.454;6.718;2022-10-16T01:40:48;18.93;;;3.17;;
20559;SDS011;10438;51.454;6.718;2022-10-16T01:43:18;10.17;;;2.73;;
20559;SDS011;10438;51.454;6.718;2022-10-16T01:45:47;6.10;;;2.77;;
20559;SDS011;10438;51.454;6.718;2022-10-16T01:48:16;14.10;;;3.23;;
20559;SDS011;10438;51.454;6.718;2022-10-16T01:50:44;9.27;;;2.70;;
20559;SDS011;10438;51.454;6.718;2022-10-16T01:53:14;9.53;;;2.90;;
20559;SDS011;10438;51.454;6.718;2022-10-16T01:55:43;7.97;;;2.20;;
20559;SDS011;10438;51.454;6.718;2022-10-16T01:58:11;4.87;;;2.50;;
20559;SDS011;10438;51.454;6.718;2022-10-16T02:00:38;6.80;;;2.10;;
20559;SDS011;10438;51.454;6.718;2022-10-16T02:03:07;9.40;;;2.10;;
20559;SDS011;10438;51.454;6.718;2022-10-16T02:05:40;6.80;;;1.97;;
20559;SDS011;10438;51.454;6.718;2022-10-16T02:08:11;8.87;;;2.07;;
20559;SDS011;10438;51.454;6.718;2022-10-16T02:10:37;5.17;;;1.93;;
20559;SDS011;10438;51.454;6.718;2022-10-16T02:13:05;6.63;;;1.90;;
20559;SDS011;10438;51.454;6.718;2022-10-16T02:15:34;5.37;;;1.70;;
20559;SDS011;10438;51.454;6.718;2022-10-16T02:17:59;6.17;;;1.90;;
20559;SDS011;10438;51.454;6.718;2022-10-16T02:20:27;10.23;;;1.80;;
20559;SDS011;10438;51.454;6.718;2022-10-16T02:22:55;7.50;;;1.97;;
20559;SDS011;10438;51.454;6.718;2022-10-16T02:25:41;7.43;;;1.97;;
20559;SDS011;10438;51.454;6.718;2022-10-16T02:28:12;6.53;;;2.10;;
20559;SDS011;10438;51.454;6.718;2022-10-16T02:30:57;5.83;;;2.60;;
20559;SDS011;10438;51.454;6.718;2022-10-16T02:33:27;8.13;;;3.20;;
20559;SDS011;10438;51.454;6.718;2022-10-16T02:35:55;8.50;;;4.10;;
20559;SDS011;10438;51.454;6.718;2022-10-16T02:38:22;8.10;;;3.70;;
20559;SDS011;10438;51.454;6.718;2022-10-16T02:40:49;12.40;;;5.57;;
20559;SDS011;10438;51.454;6.718;2022-10-16T02:43:15;10.27;;;4.60;;
20559;SDS011;10438;51.454;6.718;2022-10-16T02:45:41;7.67;;;3.73;;
20559;SDS011;10438;51.454;6.718;2022-10-16T02:48:07;7.57;;;3.80;;
20559;SDS011;10438;51.454;6.718;2022-10-16T02:50:32;9.50;;;4.07;;
20559;SDS011;10438;51.454;6.718;2022-10-16T02:52:58;7.17;;;3.13;;
20559;SDS011;10438;51.454;6.718;2022-10-16T02:55:23;6.13;;;3.60;;
20559;SDS011;10438;51.454;6.718;2022-10-16T02:57:49;9.43;;;3.77;;
20559;SDS011;10438;51.454;6.718;2022-10-16T03:00:15;8.53;;;3.40;;
20559;SDS011;10438;51.454;6.718;2022-10-16T03:02:42;11.40;;;3.37;;
20559;SDS011;10438;51.454;6.718;2022-10-16T03:05:08;9.07;;;3.30;;
20559;SDS011;10438;51.454;6.718;2022-10-16T03:07:34;5.20;;;2.83;;
20559;SDS011;10438;51.454;6.718;2022-10-16T03:09:59;8.40;;;2.93;;
20559;SDS011;10438;51.454;6.718;2022-10-16T03:12:25;9.97;;;2.70;;
20559;SDS011;10438;51.454;6.718;2022-10-16T03:14:51;4.30;;;2.27;;
20559;SDS011;10438;51.454;6.718;2022-10-16T03:17:17;7.63;;;2.53;;
20559;SDS011;10438;51.454;6.718;2022-10-16T03:19:42;6.73;;;2.27;;
20559;SDS011;10438;51.454;6.718;2022-10-16T03:22:08;6.50;;;2.40;;
20559;SDS011;10438;51.454;6.718;2022-10-16T03:24:33;4.43;;;2.07;;
20559;SDS011;10438;51.454;6.718;2022-10-16T03:26:59;6.03;;;1.90;;
20559;SDS011;10438;51.454;6.718;2022-10-16T03:29:25;7.37;;;2.07;;
20559;SDS011;10438;51.454;6.718;2022-10-16T03:31:51;4.07;;;1.80;;
20559;SDS011;10438;51.454;6.718;2022-10-16T03:34:17;13.23;;;2.47;;
20559;SDS011;10438;51.454;6.718;2022-10-16T03:36:42;16.43;;;3.43;;
20559;SDS011;10438;51.454;6.718;2022-10-16T03:39:08;6.43;;;1.47;;
20559;SDS011;10438;51.454;6.718;2022-10-16T03:41:33;5.87;;;1.70;;
20559;SDS011;10438;51.454;6.718;2022-10-16T03:43:59;5.40;;;1.60;;
20559;SDS011;10438;51.454;6.718;2022-10-16T03:46:24;5.20;;;1.60;;
20559;SDS011;10438;51.454;6.718;2022-10-16T03:48:50;4.93;;;1.70;;
20559;SDS011;10438;51.454;6.718;2022-10-16T03:51:15;4.17;;;1.47;;
20559;SDS011;10438;51.454;6.718;2022-10-16T03:53:41;4.10;;;1.70;;
20559;SDS011;10438;51.454;6.718;2022-10-16T03:56:06;4.80;;;1.43;;
20559;SDS011;10438;51.454;6.718;2022-10-16T03:58:32;5.50;;;1.43;;
20559;SDS011;10438;51.454;6.718;2022-10-16T04:00:57;3.57;;;1.20;;
20559;SDS011;10438;51.454;6.718;2022-10-16T04:03:23;7.63;;;1.70;;
20559;SDS011;10438;51.454;6.718;2022-10-16T04:05:48;5.97;;;1.33;;
20559;SDS011;10438;51.454;6.718;2022-10-16T04:08:14;5.00;;;1.10;;
20559;SDS011;10438;51.454;6.718;2022-10-16T04:10:42;5.23;;;1.20;;
20559;SDS011;10438;51.454;6.718;2022-10-16T04:13:08;4.17;;;1.00;;
20559;SDS011;10438;51.454;6.718;2022-10-16T04:15:34;3.63;;;1.20;;
20559;SDS011;10438;51.454;6.718;2022-10-16T04:17:59;4.37;;;1.43;;
20559;SDS011;10438;51.454;6.718;2022-10-16T04:20:25;6.23;;;1.20;;
20559;SDS011;10438;51.454;6.718;2022-10-16T04:22:50;5.60;;;1.40;;
20559;SDS011;10438;51.454;6.718;2022-10-16T04:25:16;5.33;;;1.70;;
20559;SDS011;10438;51.454;6.718;2022-10-16T04:27:41;5.10;;;1.20;;
20559;SDS011;10438;51.454;6.718;2022-10-16T04:30:07;4.17;;;1.23;;
20559;SDS011;10438;51.454;6.718;2022-10-16T04:32:33;4.33;;;1.50;;
20559;SDS011;10438;51.454;6.718;2022-10-16T04:34:58;2.27;;;1.20;;
20559;SDS011;10438;51.454;6.718;2022-10-16T04:37:24;8.67;;;2.10;;
20559;SDS011;10438;51.454;6.718;2022-10-16T04:39:51;5.13;;;1.33;;
20559;SDS011;10438;51.454;6.718;2022-10-16T04:42:17;3.43;;;1.57;;
20559;SDS011;10438;51.454;6.718;2022-10-16T04:44:42;3.60;;;1.20;;
20559;SDS011;10438;51.454;6.718;2022-10-16T04:47:08;6.03;;;1.30;;
20559;SDS011;10438;51.454;6.718;2022-10-16T04:49:33;3.80;;;1.30;;
20559;SDS011;10438;51.454;6.718;2022-10-16T04:51:59;3.23;;;1.13;;
20559;SDS011;10438;51.454;6.718;2022-10-16T04:54:24;5.73;;;1.70;;
20559;SDS011;10438;51.454;6.718;2022-10-16T04:56:50;2.80;;;1.10;;
20559;SDS011;10438;51.454;6.718;2022-10-16T04:59:17;8.50;;;1.30;;
20559;SDS011;10438;51.454;6.718;2022-10-16T05:01:43;5.47;;;1.63;;
20559;SDS011;10438;51.454;6.718;2022-10-16T05:04:09;3.47;;;1.20;;
20559;SDS011;10438;51.454;6.718;2022-10-16T05:06:35;3.93;;;1.40;;
20559;SDS011;10438;51.454;6.718;2022-10-16T05:09:01;3.40;;;1.33;;
20559;SDS011;10438;51.454;6.718;2022-10-16T05:11:26;3.37;;;1.37;;
20559;SDS011;10438;51.454;6.718;2022-10-16T05:13:52;2.60;;;1.10;;
20559;SDS011;10438;51.454;6.718;2022-10-16T05:16:17;7.00;;;1.87;;
20559;SDS011;10438;51.454;6.718;2022-10-16T05:18:43;3.43;;;1.40;;
20559;SDS011;10438;51.454;6.718;2022-10-16T05:21:08;6.73;;;1.50;;
20559;SDS011;10438;51.454;6.718;2022-10-16T05:23:34;5.70;;;1.97;;
20559;SDS011;10438;51.454;6.718;2022-10-16T05:25:59;6.40;;;1.70;;
20559;SDS011;10438;51.454;6.718;2022-10-16T05:28:25;7.57;;;1.77;;
20559;SDS011;10438;51.454;6.718;2022-10-16T05:30:52;7.77;;;1.70;;
20559;SDS011;10438;51.454;6.718;2022-10-16T05:33:21;6.00;;;1.80;;
20559;SDS011;10438;51.454;6.718;2022-10-16T05:35:50;6.47;;;1.80;;
20559;SDS011;10438;51.454;6.718;2022-10-16T05:38:16;6.10;;;1.90;;
20559;SDS011;10438;51.454;6.718;2022-10-16T05:40:42;4.80;;;2.00;;
20559;SDS011;10438;51.454;6.718;2022-10-16T05:43:08;8.90;;;2.17;;
20559;SDS011;10438;51.454;6.718;2022-10-16T05:45:34;5.67;;;1.53;;
20559;SDS011;10438;51.454;6.718;2022-10-16T05:47:59;6.27;;;1.73;;
20559;SDS011;10438;51.454;6.718;2022-10-16T05:50:26;4.20;;;1.37;;
20559;SDS011;10438;51.454;6.718;2022-10-16T05:52:51;4.23;;;1.50;;
20559;SDS011;10438;51.454;6.718;2022-10-16T05:55:17;4.00;;;1.47;;
20559;SDS011;10438;51.454;6.718;2022-10-16T05:57:42;3.43;;;1.50;;
20559;SDS011;10438;51.454;6.718;2022-10-16T06:00:08;4.37;;;1.47;;
20559;SDS011;10438;51.454;6.718;2022-10-16T06:02:34;5.53;;;1.27;;
20559;SDS011;10438;51.454;6.718;2022-10-16T06:05:00;5.97;;;1.60;;
20559;SDS011;10438;51.454;6.718;2022-10-16T06:07:26;3.40;;;1.53;;
20559;SDS011;10438;51.454;6.718;2022-10-16T06:09:52;4.37;;;1.60;;
20559;SDS011;10438;51.454;6.718;2022-10-16T06:12:18;5.20;;;1.83;;
20559;SDS011;10438;51.454;6.718;2022-10-16T06:14:44;3.10;;;1.70;;
20559;SDS011;10438;51.454;6.718;2022-10-16T06:17:11;4.83;;;1.60;;
20559;SDS011;10438;51.454;6.718;2022-10-16T06:19:38;3.53;;;1.77;;
20559;SDS011;10438;51.454;6.718;2022-10-16T06:22:03;4.83;;;1.97;;
20559;SDS011;10438;51.454;6.718;2022-10-16T06:24:29;11.17;;;3.67;;
20559;SDS011;10438;51.454;6.718;2022-10-16T06:26:54;5.47;;;2.00;;
20559;SDS011;10438;51.454;6.718;2022-10-16T06:29:20;10.70;;;2.90;;
20559;SDS011;10438;51.454;6.718;2022-10-16T06:31:46;3.87;;;1.90;;
20559;SDS011;10438;51.454;6.718;2022-10-16T06:34:11;5.03;;;1.80;;
20559;SDS011;10438;51.454;6.718;2022-10-16T06:36:37;5.70;;;1.73;;
20559;SDS011;10438;51.454;6.718;2022-10-16T06:39:04;5.07;;;1.93;;
20559;SDS011;10438;51.454;6.718;2022-10-16T06:41:32;4.37;;;1.90;;
20559;SDS011;10438;51.454;6.718;2022-10-16T06:43:58;5.50;;;1.90;;
20559;SDS011;10438;51.454;6.718;2022-10-16T06:46:24;7.03;;;2.47;;
20559;SDS011;10438;51.454;6.718;2022-10-16T06:48:51;9.13;;;2.00;;
20559;SDS011;10438;51.454;6.718;2022-10-16T06:51:18;5.57;;;2.43;;
20559;SDS011;10438;51.454;6.718;2022-10-16T06:53:46;6.20;;;2.30;;
20559;SDS011;10438;51.454;6.718;2022-10-16T06:56:21;6.30;;;2.50;;
20559;SDS011;10438;51.454;6.718;2022-10-16T06:58:49;5.07;;;2.13;;
20559;SDS011;10438;51.454;6.718;2022-10-16T07:01:16;6.90;;;2.30;;
20559;SDS011;10438;51.454;6.718;2022-10-16T07:03:43;7.00;;;2.10;;
20559;SDS011;10438;51.454;6.718;2022-10-16T07:06:13;5.73;;;2.30;;
20559;SDS011;10438;51.454;6.718;2022-10-16T07:08:44;6.90;;;2.50;;
20559;SDS011;10438;51.454;6.718;2022-10-16T07:11:11;7.93;;;2.40;;
20559;SDS011;10438;51.454;6.718;2022-10-16T07:13:39;7.53;;;2.47;;
20559;SDS011;10438;51.454;6.718;2022-10-16T07:18:31;5.40;;;2.27;;
20559;SDS011;10438;51.454;6.718;2022-10-16T07:21:07;6.87;;;2.40;;
20559;SDS011;10438;51.454;6.718;2022-10-16T07:23:35;5.37;;;2.53;;
20559;SDS011;10438;51.454;6.718;2022-10-16T07:26:01;6.80;;;2.80;;
20559;SDS011;10438;51.454;6.718;2022-10-16T07:28:27;6.87;;;2.80;;
20559;SDS011;10438;51.454;6.718;2022-10-16T07:30:53;5.70;;;2.50;;
20559;SDS011;10438;51.454;6.718;2022-10-16T07:33:19;8.77;;;2.37;;
20559;SDS011;10438;51.454;6.718;2022-10-16T07:35:51;8.30;;;2.70;;
20559;SDS011;10438;51.454;6.718;2022-10-16T07:38:17;6.73;;;2.27;;
20559;SDS011;10438;51.454;6.718;2022-10-16T07:40:44;5.30;;;2.30;;
20559;SDS011;10438;51.454;6.718;2022-10-16T07:43:09;9.97;;;2.60;;
20559;SDS011;10438;51.454;6.718;2022-10-16T07:45:35;9.07;;;2.63;;
20559;SDS011;10438;51.454;6.718;2022-10-16T07:48:00;5.07;;;2.50;;
20559;SDS011;10438;51.454;6.718;2022-10-16T07:50:26;7.83;;;2.67;;
20559;SDS011;10438;51.454;6.718;2022-10-16T07:52:51;5.93;;;2.30;;
20559;SDS011;10438;51.454;6.718;2022-10-16T07:55:17;6.37;;;2.27;;
20559;SDS011;10438;51.454;6.718;2022-10-16T07:57:42;10.07;;;3.87;;
20559;SDS011;10438;51.454;6.718;2022-10-16T08:00:08;8.53;;;3.27;;
20559;SDS011;10438;51.454;6.718;2022-10-16T08:02:38;5.93;;;2.13;;
20559;SDS011;10438;51.454;6.718;2022-10-16T08:05:04;7.20;;;2.47;;
20559;SDS011;10438;51.454;6.718;2022-10-16T08:07:30;8.17;;;2.30;;
20559;SDS011;10438;51.454;6.718;2022-10-16T08:09:56;11.87;;;3.03;;
20559;SDS011;10438;51.454;6.718;2022-10-16T08:12:23;7.37;;;2.17;;
20559;SDS011;10438;51.454;6.718;2022-10-16T08:14:48;4.03;;;1.70;;
20559;SDS011;10438;51.454;6.718;2022-10-16T08:17:14;6.50;;;2.30;;
20559;SDS011;10438;51.454;6.718;2022-10-16T08:19:43;5.37;;;2.03;;
20559;SDS011;10438;51.454;6.718;2022-10-16T08:22:10;4.20;;;1.77;;
20559;SDS011;10438;51.454;6.718;2022-10-16T08:24:35;5.37;;;1.70;;
20559;SDS011;10438;51.454;6.718;2022-10-16T08:27:02;6.83;;;2.00;;
20559;SDS011;10438;51.454;6.718;2022-10-16T08:29:27;7.00;;;1.70;;
20559;SDS011;10438;51.454;6.718;2022-10-16T08:31:53;4.53;;;1.87;;
20559;SDS011;10438;51.454;6.718;2022-10-16T08:34:18;7.23;;;1.40;;
20559;SDS011;10438;51.454;6.718;2022-10-16T08:36:44;3.53;;;1.20;;
20559;SDS011;10438;51.454;6.718;2022-10-16T08:39:10;6.13;;;2.00;;
20559;SDS011;10438;51.454;6.718;2022-10-16T08:47:25;4.57;;;1.10;;
20559;SDS011;10438;51.454;6.718;2022-10-16T08:50:08;4.55;;;1.15;;
20559;SDS011;10438;51.454;6.718;2022-10-16T08:52:43;5.75;;;1.08;;
20559;SDS011;10438;51.454;6.718;2022-10-16T08:55:28;3.58;;;1.17;;
20559;SDS011;10438;51.454;6.718;2022-10-16T08:58:14;4.55;;;1.05;;
20559;SDS011;10438;51.454;6.718;2022-10-16T09:00:41;5.72;;;1.80;;
20559;SDS011;10438;51.454;6.718;2022-10-16T09:15:01;3.58;;;1.00;;
20559;SDS011;10438;51.454;6.718;2022-10-16T09:23:13;3.42;;;0.90;;
20559;SDS011;10438;51.454;6.718;2022-10-16T09:25:43;4.15;;;1.08;;
20559;SDS011;10438;51.454;6.718;2022-10-16T09:28:13;6.03;;;1.17;;
20559;SDS011;10438;51.454;6.718;2022-10-16T09:30:39;3.65;;;1.10;;
20559;SDS011;10438;51.454;6.718;2022-10-16T09:33:05;5.18;;;0.93;;
20559;SDS011;10438;51.454;6.718;2022-10-16T09:35:42;5.68;;;1.20;;
20559;SDS011;10438;51.454;6.718;2022-10-16T09:38:20;5.22;;;0.80;;
20559;SDS011;10438;51.454;6.718;2022-10-16T09:40:53;3.50;;;0.90;;
20559;SDS011;10438;51.454;6.718;2022-10-16T09:46:02;4.38;;;0.93;;
20559;SDS011;10438;51.454;6.718;2022-10-16T09:48:36;3.47;;;0.70;;
20559;SDS011;10438;51.454;6.718;2022-10-16T09:51:04;5.72;;;0.77;;
20559;SDS011;10438;51.454;6.718;2022-10-16T09:53:39;3.20;;;0.70;;
20559;SDS011;10438;51.454;6.718;2022-10-16T09:56:06;5.85;;;1.02;;
20559;SDS011;10438;51.454;6.718;2022-10-16T09:58:32;4.70;;;0.88;;
20559;SDS011;10438;51.454;6.718;2022-10-16T10:00:58;6.35;;;0.90;;
20559;SDS011;10438;51.454;6.718;2022-10-16T10:03:34;3.85;;;0.82;;
20559;SDS011;10438;51.454;6.718;2022-10-16T10:08:52;3.05;;;0.85;;
20559;SDS011;10438;51.454;6.718;2022-10-16T10:19:30;5.15;;;1.08;;
20559;SDS011;10438;51.454;6.718;2022-10-16T10:22:13;3.65;;;0.90;;
20559;SDS011;10438;51.454;6.718;2022-10-16T10:24:42;3.92;;;0.90;;
20559;SDS011;10438;51.454;6.718;2022-10-16T10:27:11;3.47;;;0.90;;
20559;SDS011;10438;51.454;6.718;2022-10-16T10:29:45;5.65;;;0.70;;
20559;SDS011;10438;51.454;6.718;2022-10-16T10:32:26;4.10;;;0.80;;
20559;SDS011;10438;51.454;6.718;2022-10-16T10:35:40;2.20;;;0.70;;
20559;SDS011;10438;51.454;6.718;2022-10-16T10:37:51;5.53;;;0.90;;
20559;SDS011;10438;51.454;6.718;2022-10-16T10:40:32;5.95;;;1.20;;
20559;SDS011;10438;51.454;6.718;2022-10-16T10:44:11;2.95;;;0.70;;
20559;SDS011;10438;51.454;6.718;2022-10-16T10:46:39;7.00;;;0.90;;
20559;SDS011;10438;51.454;6.718;2022-10-16T10:57:41;7.88;;;0.90;;
20559;SDS011;10438;51.454;6.718;2022-10-16T11:00:38;4.85;;;0.85;;
20559;SDS011;10438;51.454;6.718;2022-10-16T11:06:16;2.95;;;0.70;;
20559;SDS011;10438;51.454;6.718;2022-10-16T11:11:52;2.97;;;0.90;;
20559;SDS011;10438;51.454;6.718;2022-10-16T11:17:00;6.78;;;0.80;;
20559;SDS011;10438;51.454;6.718;2022-10-16T11:19:50;4.32;;;0.70;;
20559;SDS011;10438;51.454;6.718;2022-10-16T11:22:22;2.55;;;0.70;;
20559;SDS011;10438;51.454;6.718;2022-10-16T11:25:11;4.97;;;0.70;;
20559;SDS011;10438;51.454;6.718;2022-10-16T11:27:41;3.20;;;0.63;;
20559;SDS011;10438;51.454;6.718;2022-10-16T11:30:28;4.68;;;1.13;;
20559;SDS011;10438;51.454;6.718;2022-10-16T11:35:44;6.55;;;0.85;;
20559;SDS011;10438;51.454;6.718;2022-10-16T11:38:34;2.70;;;0.70;;
20559;SDS011;10438;51.454;6.718;2022-10-16T11:41:21;2.40;;;0.75;;
20559;SDS011;10438;51.454;6.718;2022-10-16T11:44:04;3.97;;;0.80;;
20559;SDS011;10438;51.454;6.718;2022-10-16T11:46:40;5.80;;;1.30;;
20559;SDS011;10438;51.454;6.718;2022-10-16T11:49:15;3.83;;;1.00;;
20559;SDS011;10438;51.454;6.718;2022-10-16T11:57:10;2.47;;;0.50;;
20559;SDS011;10438;51.454;6.718;2022-10-16T12:03:05;3.22;;;0.75;;
20559;SDS011;10438;51.454;6.718;2022-10-16T12:08:16;6.43;;;1.90;;
20559;SDS011;10438;51.454;6.718;2022-10-16T12:10:43;5.53;;;3.15;;
20559;SDS011;10438;51.454;6.718;2022-10-16T12:18:37;7.65;;;1.40;;
20559;SDS011;10438;51.454;6.718;2022-10-16T12:21:06;7.60;;;1.10;;
20559;SDS011;10438;51.454;6.718;2022-10-16T12:23:36;3.50;;;0.68;;
20559;SDS011;10438;51.454;6.718;2022-10-16T12:26:03;3.55;;;0.90;;
20559;SDS011;10438;51.454;6.718;2022-10-16T12:28:31;3.17;;;0.73;;
20559;SDS011;10438;51.454;6.718;2022-10-16T12:31:05;3.72;;;0.70;;
20559;SDS011;10438;51.454;6.718;2022-10-16T12:33:36;2.63;;;0.70;;
20559;SDS011;10438;51.454;6.718;2022-10-16T12:36:15;3.47;;;0.80;;
20559;SDS011;10438;51.454;6.718;2022-10-16T12:38:52;2.60;;;0.80;;
20559;SDS011;10438;51.454;6.718;2022-10-16T12:43:50;4.55;;;0.70;;
20559;SDS011;10438;51.454;6.718;2022-10-16T12:48:42;5.55;;;1.00;;
20559;SDS011;10438;51.454;6.718;2022-10-16T12:51:32;4.28;;;0.70;;
20559;SDS011;10438;51.454;6.718;2022-10-16T12:54:03;5.30;;;0.70;;
20559;SDS011;10438;51.454;6.718;2022-10-16T13:01:42;3.20;;;0.80;;
20559;SDS011;10438;51.454;6.718;2022-10-16T13:04:34;3.17;;;0.90;;
20559;SDS011;10438;51.454;6.718;2022-10-16T13:10:05;4.72;;;1.05;;
20559;SDS011;10438;51.454;6.718;2022-10-16T13:12:48;5.15;;;0.77;;
20559;SDS011;10438;51.454;6.718;2022-10-16T13:18:11;4.07;;;0.80;;
20559;SDS011;10438;51.454;6.718;2022-10-16T13:23:30;7.38;;;1.00;;
20559;SDS011;10438;51.454;6.718;2022-10-16T13:28:45;2.33;;;0.70;;
20559;SDS011;10438;51.454;6.718;2022-10-16T13:31:18;4.40;;;0.70;;
20559;SDS011;10438;51.454;6.718;2022-10-16T13:33:52;4.07;;;0.63;;
20559;SDS011;10438;51.454;6.718;2022-10-16T13:36:21;3.08;;;0.60;;
20559;SDS011;10438;51.454;6.718;2022-10-16T13:38:48;4.78;;;0.90;;
20559;SDS011;10438;51.454;6.718;2022-10-16T13:41:25;9.48;;;1.50;;
20559;SDS011;10438;51.454;6.718;2022-10-16T13:43:51;4.45;;;1.00;;
20559;SDS011;10438;51.454;6.718;2022-10-16T13:46:19;3.80;;;1.20;;
20559;SDS011;10438;51.454;6.718;2022-10-16T13:51:29;5.80;;;1.50;;
20559;SDS011;10438;51.454;6.718;2022-10-16T13:53:56;6.80;;;1.20;;
20559;SDS011;10438;51.454;6.718;2022-10-16T13:56:24;5.53;;;1.17;;
20559;SDS011;10438;51.454;6.718;2022-10-16T13:59:05;4.38;;;0.80;;
20559;SDS011;10438;51.454;6.718;2022-10-16T14:01:46;8.05;;;2.53;;
20559;SDS011;10438;51.454;6.718;2022-10-16T14:04:12;3.78;;;0.82;;
20559;SDS011;10438;51.454;6.718;2022-10-16T14:06:43;2.92;;;0.75;;
20559;SDS011;10438;51.454;6.718;2022-10-16T14:11:53;3.70;;;0.77;;
20559;SDS011;10438;51.454;6.718;2022-10-16T14:14:25;6.57;;;1.23;;
20559;SDS011;10438;51.454;6.718;2022-10-16T14:16:57;3.00;;;0.60;;
20559;SDS011;10438;51.454;6.718;2022-10-16T14:19:26;4.78;;;0.90;;
20559;SDS011;10438;51.454;6.718;2022-10-16T14:21:54;3.85;;;0.88;;
20559;SDS011;10438;51.454;6.718;2022-10-16T14:24:30;5.60;;;0.80;;
20559;SDS011;10438;51.454;6.718;2022-10-16T14:26:58;4.55;;;0.93;;
20559;SDS011;10438;51.454;6.718;2022-10-16T14:29:25;4.90;;;0.88;;
20559;SDS011;10438;51.454;6.718;2022-10-16T14:31:56;7.90;;;1.23;;
20559;SDS011;10438;51.454;6.718;2022-10-16T14:34:24;6.25;;;1.58;;
20559;SDS011;10438;51.454;6.718;2022-10-16T14:36:58;3.95;;;1.00;;
20559;SDS011;10438;51.454;6.718;2022-10-16T14:39:39;5.68;;;1.05;;
20559;SDS011;10438;51.454;6.718;2022-10-16T14:42:11;3.70;;;0.80;;
20559;SDS011;10438;51.454;6.718;2022-10-16T14:44:41;4.68;;;0.90;;
20559;SDS011;10438;51.454;6.718;2022-10-16T14:47:07;4.20;;;0.98;;
20559;SDS011;10438;51.454;6.718;2022-10-16T14:49:47;3.80;;;0.88;;
20559;SDS011;10438;51.454;6.718;2022-10-16T14:52:12;4.43;;;0.85;;
20559;SDS011;10438;51.454;6.718;2022-10-16T14:54:38;3.08;;;0.77;;
20559;SDS011;10438;51.454;6.718;2022-10-16T14:57:04;2.60;;;0.80;;
20559;SDS011;10438;51.454;6.718;2022-10-16T14:59:31;4.50;;;0.77;;
20559;SDS011;10438;51.454;6.718;2022-10-16T15:02:35;3.88;;;1.10;;
20559;SDS011;10438;51.454;6.718;2022-10-16T15:04:55;6.40;;;1.65;;
20559;SDS011;10438;51.454;6.718;2022-10-16T15:07:21;7.50;;;1.00;;
20559;SDS011;10438;51.454;6.718;2022-10-16T15:09:47;2.92;;;0.70;;
20559;SDS011;10438;51.454;6.718;2022-10-16T15:12:13;6.65;;;0.98;;
20559;SDS011;10438;51.454;6.718;2022-10-16T15:14:38;6.07;;;1.55;;
20559;SDS011;10438;51.454;6.718;2022-10-16T15:17:04;6.82;;;1.10;;
20559;SDS011;10438;51.454;6.718;2022-10-16T15:19:29;7.43;;;0.90;;
20559;SDS011;10438;51.454;6.718;2022-10-16T15:21:55;14.45;;;1.80;;
20559;SDS011;10438;51.454;6.718;2022-10-16T15:24:21;7.22;;;1.20;;
20559;SDS011;10438;51.454;6.718;2022-10-16T15:26:47;6.95;;;1.05;;
20559;SDS011;10438;51.454;6.718;2022-10-16T15:29:13;5.38;;;0.98;;
20559;SDS011;10438;51.454;6.718;2022-10-16T15:31:39;7.70;;;1.50;;
20559;SDS011;10438;51.454;6.718;2022-10-16T15:34:08;18.63;;;1.70;;
20559;SDS011;10438;51.454;6.718;2022-10-16T15:36:35;26.00;;;2.05;;
20559;SDS011;10438;51.454;6.718;2022-10-16T15:39:12;16.10;;;2.28;;
20559;SDS011;10438;51.454;6.718;2022-10-16T15:41:39;14.15;;;1.45;;
20559;SDS011;10438;51.454;6.718;2022-10-16T15:44:05;12.93;;;1.45;;
20559;SDS011;10438;51.454;6.718;2022-10-16T15:46:30;30.63;;;1.85;;
20559;SDS011;10438;51.454;6.718;2022-10-16T15:48:58;29.75;;;3.30;;
20559;SDS011;10438;51.454;6.718;2022-10-16T15:51:24;12.63;;;1.25;;
20559;SDS011;10438;51.454;6.718;2022-10-16T15:53:52;68.45;;;4.38;;
20559;SDS011;10438;51.454;6.718;2022-10-16T15:56:18;31.80;;;3.17;;
20559;SDS011;10438;51.454;6.718;2022-10-16T15:58:44;3.22;;;1.23;;
20559;SDS011;10438;51.454;6.718;2022-10-16T16:01:10;10.48;;;1.80;;
20559;SDS011;10438;51.454;6.718;2022-10-16T16:03:37;11.88;;;1.08;;
20559;SDS011;10438;51.454;6.718;2022-10-16T16:06:05;4.88;;;1.27;;
20559;SDS011;10438;51.454;6.718;2022-10-16T16:08:32;4.10;;;1.27;;
20559;SDS011;10438;51.454;6.718;2022-10-16T16:10:59;13.20;;;1.95;;
20559;SDS011;10438;51.454;6.718;2022-10-16T16:13:29;5.68;;;1.60;;
20559;SDS011;10438;51.454;6.718;2022-10-16T16:15:54;16.27;;;1.70;;
20559;SDS011;10438;51.454;6.718;2022-10-16T16:18:20;17.02;;;1.65;;
20559;SDS011;10438;51.454;6.718;2022-10-16T16:20:46;35.15;;;3.25;;
20559;SDS011;10438;51.454;6.718;2022-10-16T16:23:12;8.93;;;1.55;;
20559;SDS011;10438;51.454;6.718;2022-10-16T16:25:37;4.85;;;1.40;;
20559;SDS011;10438;51.454;6.718;2022-10-16T16:28:03;3.95;;;1.13;;
20559;SDS011;10438;51.454;6.718;2022-10-16T16:30:28;9.98;;;1.40;;
20559;SDS011;10438;51.454;6.718;2022-10-16T16:32:54;16.45;;;2.05;;
20559;SDS011;10438;51.454;6.718;2022-10-16T16:35:19;34.65;;;2.70;;
20559;SDS011;10438;51.454;6.718;2022-10-16T16:37:46;26.35;;;3.35;;
20559;SDS011;10438;51.454;6.718;2022-10-16T16:40:12;10.02;;;1.58;;
20559;SDS011;10438;51.454;6.718;2022-10-16T16:42:38;4.72;;;1.50;;
20559;SDS011;10438;51.454;6.718;2022-10-16T16:45:04;17.85;;;2.22;;
20559;SDS011;10438;51.454;6.718;2022-10-16T16:47:30;11.25;;;2.30;;
20559;SDS011;10438;51.454;6.718;2022-10-16T16:49:55;9.30;;;2.03;;
20559;SDS011;10438;51.454;6.718;2022-10-16T16:52:21;11.13;;;3.10;;
20559;SDS011;10438;51.454;6.718;2022-10-16T16:54:47;17.52;;;2.75;;